Time;durP1;ratioP1;P1;durP2;ratioP2;P2;SDS_P1;SDS_P2;PMS_P1;PMS_P2;Temp;Humidity;BMP_temperature;BMP_pressure;BME280_temperature;BME280_humidity;BME280_pressure;Samples;Min_cycle;Max_cycle;Signal;HPM_P1;HPM_P2
2023/02/09 00:00:14;;;;;;;0.57;0.57;;;;;;;0.95;100.00;102419.13;4997562;28;20578;-78
2023/02/09 00:02:40;;;;;;;1.05;1.05;;;;;;;0.82;100.00;102429.41;4981374;28;20038;-76
2023/02/09 00:05:07;;;;;;;0.50;0.50;;;;;;;0.65;100.00;102430.22;4997803;28;20107;-76
2023/02/09 00:07:32;;;;;;;0.40;0.40;;;;;;;0.49;100.00;102411.53;4997569;28;20041;-76
2023/02/09 00:09:58;;;;;;;0.55;0.55;;;;;;;0.40;100.00;102436.63;4997111;28;20030;-77
2023/02/09 00:15:10;;;;;;;6.70;6.32;;;;;;;-0.05;100.00;102416.56;5000270;28;20092;-77
2023/02/09 00:17:39;;;;;;;0.50;0.50;;;;;;;0.05;100.00;102442.59;5013775;28;20026;-76
2023/02/09 00:20:06;;;;;;;0.50;0.50;;;;;;;-0.04;100.00;102428.84;4997345;28;20088;-76
2023/02/09 00:22:32;;;;;;;0.50;0.50;;;;;;;-0.13;100.00;102439.84;4980875;28;20088;-77
2023/02/09 00:24:58;;;;;;;0.60;0.60;;;;;;;-0.28;100.00;102432.56;5013191;28;20048;-76
2023/02/09 00:27:23;;;;;;;0.50;0.50;;;;;;;-0.45;100.00;102438.53;4997445;28;20388;-77
2023/02/09 00:29:49;;;;;;;0.88;0.85;;;;;;;-0.68;100.00;102445.63;5012766;28;20176;-76
2023/02/09 00:32:17;;;;;;;0.50;0.50;;;;;;;-0.72;100.00;102440.50;4997381;28;20076;-76
2023/02/09 00:34:43;;;;;;;0.50;0.50;;;;;;;-0.67;100.00;102444.69;4997181;28;20483;-77
2023/02/09 00:37:08;;;;;;;0.50;0.50;;;;;;;-0.64;100.00;102445.50;4996142;28;20069;-76
2023/02/09 00:39:34;;;;;;;0.52;0.52;;;;;;;-0.75;100.00;102440.66;5013410;28;20050;-76
2023/02/09 00:42:05;;;;;;;0.50;0.50;;;;;;;-0.72;100.00;102445.81;5012593;28;20033;-76
2023/02/09 00:44:40;;;;;;;0.50;0.50;;;;;;;-0.77;100.00;102450.41;4997181;28;20090;-76
2023/02/09 00:47:09;;;;;;;0.50;0.50;;;;;;;-0.80;100.00;102446.09;5013358;28;20030;-76
2023/02/09 00:49:35;;;;;;;0.50;0.50;;;;;;;-0.79;100.00;102460.19;4996607;28;20062;-76
2023/02/09 00:52:01;;;;;;;0.50;0.50;;;;;;;-0.74;100.00;102458.19;5012971;28;20057;-76
2023/02/09 00:54:26;;;;;;;0.50;0.50;;;;;;;-0.72;100.00;102457.22;4996582;28;20556;-76
2023/02/09 00:56:52;;;;;;;0.50;0.50;;;;;;;-0.56;100.00;102473.31;4996810;28;20030;-76
2023/02/09 00:59:18;;;;;;;0.50;0.50;;;;;;;-0.43;100.00;102463.13;4996633;28;20064;-77
2023/02/09 01:01:43;;;;;;;0.50;0.50;;;;;;;-0.25;100.00;102474.72;4996402;28;20034;-76
2023/02/09 01:04:15;;;;;;;0.50;0.50;;;;;;;-0.27;100.00;102465.97;5014290;28;20025;-76
2023/02/09 01:06:40;;;;;;;0.50;0.50;;;;;;;-0.22;100.00;102477.22;5012258;28;20030;-76
2023/02/09 01:09:08;;;;;;;0.50;0.50;;;;;;;-0.23;100.00;102473.72;5013040;28;20033;-76
2023/02/09 01:11:37;;;;;;;0.50;0.50;;;;;;;-0.32;100.00;102475.88;5013699;28;20045;-76
2023/02/09 01:14:03;;;;;;;0.50;0.50;;;;;;;-0.38;100.00;102476.16;5013095;28;20029;-76
2023/02/09 01:16:30;;;;;;;0.50;0.50;;;;;;;-0.35;100.00;102468.94;5013807;28;20030;-77
2023/02/09 01:18:59;;;;;;;0.50;0.50;;;;;;;-0.31;100.00;102478.47;5012273;28;20164;-76
2023/02/09 01:21:25;;;;;;;0.80;0.80;;;;;;;-0.16;100.00;102477.00;5013006;28;20168;-76
2023/02/09 01:23:55;;;;;;;0.50;0.50;;;;;;;-0.01;100.00;102459.59;5011990;28;20116;-77
2023/02/09 01:26:21;;;;;;;0.50;0.50;;;;;;;-0.01;100.00;102449.88;5013962;28;20034;-76
2023/02/09 01:28:49;;;;;;;0.50;0.50;;;;;;;0.15;100.00;102471.22;5012477;28;20038;-77
2023/02/09 01:31:20;;;;;;;0.50;0.50;;;;;;;0.08;100.00;102453.94;5012311;28;20049;-77
2023/02/09 01:33:46;;;;;;;0.40;0.40;;;;;;;0.08;100.00;102475.09;5013667;28;20033;-76
2023/02/09 01:36:17;;;;;;;0.50;0.50;;;;;;;0.05;100.00;102475.19;4996114;28;20092;-76
2023/02/09 01:38:43;;;;;;;0.50;0.50;;;;;;;0.03;100.00;102481.47;5012538;28;20030;-77
2023/02/09 01:41:11;;;;;;;0.50;0.50;;;;;;;0.01;100.00;102493.94;4996441;28;20046;-76
2023/02/09 01:44:15;;;;;;;0.50;0.50;;;;;;;0.18;100.00;102486.13;5011749;28;20038;-76
2023/02/09 01:46:42;;;;;;;0.50;0.50;;;;;;;0.19;100.00;102474.63;5006263;28;20050;-76
2023/02/09 01:49:15;;;;;;;0.50;0.50;;;;;;;0.27;100.00;102484.88;4995601;28;20049;-77
2023/02/09 01:51:49;;;;;;;0.50;0.50;;;;;;;0.33;100.00;102490.75;4996441;28;20045;-76
2023/02/09 01:54:41;;;;;;;0.50;0.50;;;;;;;0.35;100.00;102491.53;5012051;28;20112;-78
2023/02/09 01:57:14;;;;;;;0.50;0.50;;;;;;;0.36;100.00;102498.53;5013084;28;20136;-76
2023/02/09 01:59:46;;;;;;;0.50;0.50;;;;;;;0.34;100.00;102494.25;5012585;28;20030;-76
2023/02/09 02:02:14;;;;;;;0.50;0.50;;;;;;;0.39;100.00;102479.03;5012413;28;20092;-76
2023/02/09 02:04:41;;;;;;;0.50;0.50;;;;;;;0.28;100.00;102465.41;5012726;28;20042;-77
2023/02/09 02:07:29;;;;;;;0.40;0.40;;;;;;;0.41;100.00;102485.97;4995991;28;20041;-77
2023/02/09 02:10:00;;;;;;;0.50;0.50;;;;;;;0.42;100.00;102478.88;4996651;28;20041;-77
2023/02/09 02:12:25;;;;;;;0.50;0.50;;;;;;;0.33;100.00;102471.38;5012484;28;20361;-76
2023/02/09 02:14:54;;;;;;;0.50;0.50;;;;;;;0.52;100.00;102506.66;5011939;28;20044;-76
2023/02/09 02:17:25;;;;;;;0.50;0.50;;;;;;;0.53;100.00;102503.13;5013678;28;20026;-77
2023/02/09 02:20:21;;;;;;;0.50;0.50;;;;;;;0.49;100.00;102495.38;5012915;28;20038;-76
2023/02/09 02:23:11;;;;;;;0.50;0.50;;;;;;;0.55;100.00;102510.97;5012532;28;20128;-76
2023/02/09 02:25:58;;;;;;;0.50;0.50;;;;;;;0.52;100.00;102511.09;5028299;28;20487;-78
2023/02/09 02:28:41;;;;;;;0.40;0.40;;;;;;;0.52;100.00;102511.09;5013016;28;20033;-75
2023/02/09 02:32:03;;;;;;;0.50;0.50;;;;;;;0.61;100.00;102510.72;5012402;28;20484;-77
2023/02/09 02:34:38;;;;;;;0.45;0.45;;;;;;;0.68;100.00;102511.28;4977657;28;20073;-78
2023/02/09 02:37:29;;;;;;;0.50;0.50;;;;;;;0.70;100.00;102510.28;5015930;28;20030;-77
2023/02/09 02:40:34;;;;;;;0.50;0.50;;;;;;;0.70;100.00;102523.53;5016514;28;20030;-75
2023/02/09 02:43:32;;;;;;;0.50;0.50;;;;;;;0.71;100.00;102527.88;5014980;28;20428;-76
2023/02/09 02:46:04;;;;;;;0.40;0.40;;;;;;;0.74;100.00;102535.72;5031797;28;20380;-77
2023/02/09 02:48:41;;;;;;;0.40;0.40;;;;;;;0.74;100.00;102519.84;4998954;28;20033;-76
2023/02/09 02:51:21;;;;;;;0.50;0.50;;;;;;;0.92;100.00;102536.66;5015517;28;20080;-76
2023/02/09 02:53:51;;;;;;;0.50;0.50;;;;;;;1.00;100.00;102538.94;5031290;28;20037;-76
2023/02/09 02:56:31;;;;;;;0.50;0.50;;;;;;;1.07;100.00;102540.41;5015051;28;20472;-77
2023/02/09 02:58:58;;;;;;;0.50;0.50;;;;;;;1.06;100.00;102541.34;5015697;28;20034;-76
2023/02/09 03:01:26;;;;;;;0.50;0.50;;;;;;;1.08;100.00;102548.25;4998309;28;20104;-76
2023/02/09 03:03:52;;;;;;;0.50;0.50;;;;;;;1.08;100.00;102534.16;5014873;28;20029;-76
2023/02/09 03:06:24;;;;;;;0.50;0.50;;;;;;;1.02;100.00;102518.56;5014950;28;20036;-77
2023/02/09 03:08:57;;;;;;;0.50;0.50;;;;;;;1.04;100.00;102543.19;4998627;28;20298;-76
2023/02/09 03:11:38;;;;;;;0.50;0.50;;;;;;;0.82;100.00;102522.09;5015108;28;20101;-76
2023/02/09 03:14:46;;;;;;;1.15;1.08;;;;;;;0.86;100.00;102542.25;4998703;28;20042;-76
2023/02/09 03:17:30;;;;;;;0.50;0.50;;;;;;;0.84;100.00;102550.25;5006500;28;20064;-76
2023/02/09 03:20:05;;;;;;;0.50;0.50;;;;;;;0.81;100.00;102546.88;5014408;28;20053;-76
2023/02/09 03:22:39;;;;;;;0.50;0.50;;;;;;;0.76;100.00;102552.38;5014863;28;20034;-76
2023/02/09 03:25:11;;;;;;;0.50;0.50;;;;;;;0.72;100.00;102569.34;4998547;28;20038;-76
2023/02/09 03:27:46;;;;;;;0.50;0.50;;;;;;;0.63;100.00;102567.06;4997807;28;20061;-76
2023/02/09 03:30:16;;;;;;;0.50;0.50;;;;;;;0.61;100.00;102568.97;5014814;28;20029;-76
2023/02/09 03:32:45;;;;;;;0.50;0.50;;;;;;;0.60;100.00;102560.13;4998612;28;20029;-76
2023/02/09 03:35:15;;;;;;;0.40;0.40;;;;;;;0.67;100.00;102571.31;5014208;28;20044;-76
2023/02/09 03:37:41;;;;;;;0.50;0.50;;;;;;;0.69;100.00;102569.47;5014809;28;20037;-76
2023/02/09 03:40:11;;;;;;;0.50;0.50;;;;;;;0.59;100.00;102558.41;4998175;28;20033;-77
2023/02/09 03:42:36;;;;;;;0.50;0.50;;;;;;;0.71;100.00;102564.09;4997991;28;20038;-76
2023/02/09 03:45:03;;;;;;;1.70;1.70;;;;;;;0.78;100.00;102562.91;4997020;28;20044;-76
2023/02/09 03:47:29;;;;;;;0.50;0.50;;;;;;;0.83;100.00;102560.91;4998272;28;20095;-78
2023/02/09 03:49:58;;;;;;;0.50;0.50;;;;;;;0.91;100.00;102565.88;4997320;28;20494;-77
2023/02/09 03:52:24;;;;;;;0.40;0.40;;;;;;;0.93;100.00;102564.00;5014197;28;20432;-76
2023/02/09 03:54:49;;;;;;;0.40;0.40;;;;;;;0.85;100.00;102564.38;4998088;28;20448;-76
2023/02/09 03:57:17;;;;;;;0.45;0.45;;;;;;;0.71;100.00;102554.38;5013679;28;20468;-76
2023/02/09 03:59:45;;;;;;;3.40;3.15;;;;;;;0.62;100.00;102566.22;4998862;28;20408;-76
2023/02/09 04:02:11;;;;;;;0.50;0.50;;;;;;;0.47;100.00;102566.88;4997999;28;20473;-76
2023/02/09 04:04:37;;;;;;;0.80;0.80;;;;;;;0.40;100.00;102576.88;4997448;28;20030;-77
2023/02/09 04:07:03;;;;;;;0.70;0.70;;;;;;;0.30;100.00;102575.56;5014159;28;20447;-76
2023/02/09 04:09:31;;;;;;;0.50;0.50;;;;;;;0.41;100.00;102597.13;4996792;28;20030;-77
2023/02/09 04:11:57;;;;;;;0.73;0.73;;;;;;;0.35;100.00;102584.16;5013986;28;20037;-76
2023/02/09 04:14:24;;;;;;;1.30;1.30;;;;;;;0.25;100.00;102576.69;5015045;28;20030;-76
2023/02/09 04:16:52;;;;;;;0.57;0.57;;;;;;;0.29;100.00;102592.38;5013821;28;20037;-76
2023/02/09 04:19:18;;;;;;;0.50;0.50;;;;;;;0.31;100.00;102590.50;5013732;28;20404;-76
2023/02/09 04:21:44;;;;;;;0.85;0.85;;;;;;;0.31;100.00;102590.50;4997645;28;20034;-77
2023/02/09 04:24:10;;;;;;;1.20;1.20;;;;;;;0.30;100.00;102593.22;5012705;28;20037;-77
2023/02/09 04:26:37;;;;;;;0.50;0.50;;;;;;;0.14;100.00;102591.22;4997492;28;20045;-76
2023/02/09 04:29:03;;;;;;;0.50;0.50;;;;;;;0.02;100.00;102586.41;5013808;28;20038;-76
2023/02/09 04:31:33;;;;;;;0.50;0.50;;;;;;;-0.24;100.00;102593.63;5012969;28;20042;-76
2023/02/09 04:34:02;;;;;;;2.45;2.25;;;;;;;-0.62;100.00;102567.81;5013265;28;20022;-76
2023/02/09 04:36:30;;;;;;;0.50;0.50;;;;;;;-0.65;100.00;102584.66;5013639;28;20022;-76
2023/02/09 04:38:56;;;;;;;0.50;0.50;;;;;;;-0.75;100.00;102599.13;5012647;28;20464;-77
2023/02/09 04:41:25;;;;;;;0.50;0.50;;;;;;;-0.81;100.00;102600.22;5013228;28;20096;-76
2023/02/09 04:43:53;;;;;;;0.50;0.50;;;;;;;-0.79;100.00;102587.81;4997549;28;20045;-76
2023/02/09 04:46:24;;;;;;;0.50;0.50;;;;;;;-0.57;100.00;102598.44;5012591;28;20034;-76
2023/02/09 04:48:49;;;;;;;0.50;0.50;;;;;;;-0.35;100.00;102609.03;4997166;28;20038;-77
2023/02/09 04:51:15;;;;;;;0.50;0.50;;;;;;;-0.23;100.00;102610.34;5013184;28;20483;-76
2023/02/09 04:53:41;;;;;;;0.50;0.50;;;;;;;-0.14;100.00;102607.31;5012567;28;20038;-76
2023/02/09 04:56:07;;;;;;;0.50;0.50;;;;;;;0.01;100.00;102618.22;5013375;28;20037;-76
2023/02/09 05:01:24;;;;;;;0.50;0.50;;;;;;;0.07;100.00;102594.16;5013027;28;20022;-78
2023/02/09 05:03:50;;;;;;;0.50;0.50;;;;;;;0.16;100.00;102604.34;5012886;28;20033;-78
2023/02/09 05:06:21;;;;;;;0.50;0.50;;;;;;;0.27;100.00;102615.38;5012087;28;20045;-78
2023/02/09 05:08:47;;;;;;;0.50;0.50;;;;;;;0.33;100.00;102607.16;4996852;28;20038;-77
2023/02/09 05:11:13;;;;;;;0.50;0.50;;;;;;;0.30;100.00;102583.50;5012697;28;20030;-77
2023/02/09 05:13:41;;;;;;;0.50;0.50;;;;;;;0.52;100.00;102617.84;5011687;28;20030;-77
2023/02/09 05:16:10;;;;;;;0.50;0.50;;;;;;;0.59;100.00;102610.50;4996705;28;20109;-77
2023/02/09 05:18:38;;;;;;;0.50;0.50;;;;;;;0.63;100.00;102606.78;5012666;28;20038;-77
2023/02/09 05:21:04;;;;;;;0.50;0.50;;;;;;;0.69;100.00;102611.84;5012175;28;20520;-76
2023/02/09 05:23:30;;;;;;;0.50;0.50;;;;;;;0.73;100.00;102610.75;5014052;28;20030;-76
2023/02/09 05:25:56;;;;;;;0.50;0.50;;;;;;;0.78;100.00;102621.16;5012801;28;20056;-76
2023/02/09 05:28:22;;;;;;;0.50;0.50;;;;;;;0.80;100.00;102619.31;4995585;28;20026;-76
2023/02/09 05:30:52;;;;;;;0.50;0.50;;;;;;;0.81;100.00;102629.81;4996262;28;20030;-76
2023/02/09 05:33:25;;;;;;;0.50;0.50;;;;;;;0.82;100.00;102636.84;5029093;28;20073;-76
2023/02/09 05:35:52;;;;;;;0.50;0.50;;;;;;;0.84;100.00;102634.97;4979933;28;20045;-76
2023/02/09 05:38:18;;;;;;;0.50;0.50;;;;;;;0.87;100.00;102637.53;5012395;28;20026;-76
2023/02/09 05:40:46;;;;;;;0.50;0.50;;;;;;;0.86;100.00;102643.72;5011728;28;20088;-76
2023/02/09 05:43:14;;;;;;;0.50;0.50;;;;;;;0.81;100.00;102648.34;4981046;28;20083;-76
2023/02/09 05:45:43;;;;;;;0.50;0.50;;;;;;;0.78;100.00;102645.84;4996523;28;20454;-76
2023/02/09 05:48:12;;;;;;;0.50;0.50;;;;;;;0.78;100.00;102648.50;4979763;28;20046;-76
2023/02/09 05:50:41;;;;;;;0.50;0.50;;;;;;;0.81;100.00;102651.00;5012481;28;20480;-76
2023/02/09 05:53:12;;;;;;;0.50;0.50;;;;;;;0.71;100.00;102625.00;4996376;28;20495;-76
2023/02/09 05:55:40;;;;;;;0.40;0.40;;;;;;;0.84;100.00;102642.94;4995677;28;20386;-76
2023/02/09 05:58:06;;;;;;;0.47;0.47;;;;;;;0.83;100.00;102627.97;5013700;28;20487;-76
2023/02/09 06:00:35;;;;;;;0.50;0.50;;;;;;;0.88;100.00;102635.72;4996065;28;20022;-76
2023/02/09 06:03:04;;;;;;;0.50;0.50;;;;;;;0.93;100.00;102644.34;5011983;28;20503;-76
2023/02/09 06:05:32;;;;;;;0.50;0.50;;;;;;;0.95;100.00;102638.94;4996249;28;20041;-76
2023/02/09 06:07:57;;;;;;;0.50;0.50;;;;;;;1.06;100.00;102644.66;5012400;28;20041;-76
2023/02/09 06:10:23;;;;;;;0.50;0.50;;;;;;;1.08;100.00;102646.28;5000141;28;20030;-76
2023/02/09 06:12:48;;;;;;;0.50;0.50;;;;;;;1.03;100.00;102639.47;5017448;28;20460;-76
2023/02/09 06:15:17;;;;;;;0.50;0.50;;;;;;;1.09;100.00;102653.31;5015387;28;20025;-76
2023/02/09 06:17:43;;;;;;;0.50;0.50;;;;;;;1.06;100.00;102649.97;5000369;28;20036;-77
2023/02/09 06:20:10;;;;;;;0.50;0.50;;;;;;;1.07;100.00;102656.97;5015818;28;20030;-77
2023/02/09 06:22:35;;;;;;;0.50;0.50;;;;;;;1.03;100.00;102643.00;4999060;28;20109;-76
2023/02/09 06:25:01;;;;;;;0.50;0.50;;;;;;;1.09;100.00;102649.81;5016920;28;20112;-77
2023/02/09 06:27:27;;;;;;;0.50;0.50;;;;;;;1.05;100.00;102637.63;5000257;28;20038;-76
2023/02/09 06:29:55;;;;;;;0.50;0.50;;;;;;;1.17;100.00;102654.78;5014562;28;20034;-76
2023/02/09 06:32:21;;;;;;;0.50;0.50;;;;;;;1.17;100.00;102658.28;5000110;28;20484;-76
2023/02/09 06:34:49;;;;;;;0.50;0.50;;;;;;;1.15;100.00;102648.69;5015858;28;20037;-76
2023/02/09 06:37:14;;;;;;;0.50;0.50;;;;;;;1.26;100.00;102657.00;5014333;28;20388;-76
2023/02/09 06:39:43;;;;;;;0.50;0.50;;;;;;;1.33;100.00;102657.59;5016812;28;20048;-77
2023/02/09 06:42:08;;;;;;;0.50;0.50;;;;;;;1.33;100.00;102666.41;5015458;28;20530;-76
2023/02/09 06:44:37;;;;;;;0.50;0.50;;;;;;;1.33;100.00;102668.22;4998167;28;20076;-76
2023/02/09 06:47:05;;;;;;;0.50;0.50;;;;;;;1.21;100.00;102649.25;4999374;28;20029;-77
2023/02/09 06:49:31;;;;;;;0.50;0.50;;;;;;;1.35;100.00;102679.56;4983156;28;20388;-76
2023/02/09 06:51:57;;;;;;;0.50;0.50;;;;;;;1.36;100.00;102679.53;5014690;28;20095;-76
2023/02/09 06:54:31;;;;;;;0.50;0.50;;;;;;;1.33;100.00;102668.22;5015453;28;20091;-76
2023/02/09 06:56:56;;;;;;;0.50;0.50;;;;;;;1.33;100.00;102673.50;4983737;28;20038;-76
2023/02/09 06:59:23;;;;;;;0.50;0.50;;;;;;;1.34;100.00;102667.25;5014477;28;20030;-77
2023/02/09 07:01:50;;;;;;;0.50;0.50;;;;;;;1.41;100.00;102682.81;5016048;28;20028;-76
2023/02/09 07:04:15;;;;;;;0.43;0.43;;;;;;;1.50;100.00;102686.84;5015213;28;20036;-77
2023/02/09 07:06:41;;;;;;;0.40;0.40;;;;;;;1.46;100.00;102674.66;4998254;28;20388;-76
2023/02/09 07:09:07;;;;;;;0.50;0.50;;;;;;;1.60;100.00;102698.75;4999047;28;20037;-77
2023/02/09 07:11:35;;;;;;;0.50;0.50;;;;;;;1.61;100.00;102704.91;5015955;28;20029;-76
2023/02/09 07:14:04;;;;;;;0.50;0.50;;;;;;;1.63;100.00;102709.22;4998734;28;20045;-77
2023/02/09 07:16:30;;;;;;;0.50;0.50;;;;;;;1.67;100.00;102702.00;5015117;28;20103;-77
2023/02/09 07:18:58;;;;;;;0.50;0.50;;;;;;;1.61;100.00;102705.75;5030430;28;20108;-77
2023/02/09 07:21:23;;;;;;;0.50;0.50;;;;;;;1.64;100.00;102721.56;4998449;28;20030;-77
2023/02/09 07:23:49;;;;;;;0.50;0.50;;;;;;;1.59;100.00;102717.38;5014315;28;20041;-77
2023/02/09 07:26:19;;;;;;;0.50;0.50;;;;;;;1.53;100.00;102714.09;5014170;28;20052;-76
2023/02/09 07:28:45;;;;;;;0.85;0.85;;;;;;;1.50;100.00;102713.34;5014890;28;20061;-76
2023/02/09 07:31:18;;;;;;;0.50;0.50;;;;;;;1.50;100.00;102714.22;5013880;28;20073;-77
2023/02/09 07:33:51;;;;;;;0.40;0.40;;;;;;;1.51;100.00;102725.69;5013121;28;20034;-77
2023/02/09 07:36:22;;;;;;;0.50;0.50;;;;;;;1.50;100.00;102729.25;5013248;28;20119;-76
2023/02/09 07:38:52;;;;;;;0.50;0.50;;;;;;;1.46;100.00;102725.03;5011321;28;20033;-76
2023/02/09 07:41:20;;;;;;;0.50;0.50;;;;;;;1.39;100.00;102731.53;4980571;28;20040;-76
2023/02/09 07:43:49;;;;;;;0.63;0.63;;;;;;;1.36;100.00;102740.47;5012939;28;20026;-76
2023/02/09 07:46:16;;;;;;;0.50;0.50;;;;;;;1.36;100.00;102732.53;4996113;28;20415;-77
2023/02/09 07:48:46;;;;;;;0.50;0.50;;;;;;;1.35;100.00;102745.84;4997615;28;20037;-76
2023/02/09 07:51:23;;;;;;;0.50;0.50;;;;;;;1.33;100.00;102737.13;5013556;28;20095;-77
2023/02/09 07:54:00;;;;;;;0.40;0.40;;;;;;;1.14;100.00;102722.00;4999243;28;20049;-76
2023/02/09 07:56:26;;;;;;;0.50;0.50;;;;;;;1.20;100.00;102744.72;4998211;28;20069;-76
2023/02/09 07:58:53;;;;;;;0.50;0.50;;;;;;;1.19;100.00;102754.47;5013668;28;20038;-76
2023/02/09 08:01:22;;;;;;;0.50;0.50;;;;;;;1.27;100.00;102759.41;4997967;28;20037;-76
2023/02/09 08:03:50;;;;;;;0.50;0.50;;;;;;;1.29;100.00;102755.78;4997043;28;20049;-76
2023/02/09 08:06:30;;;;;;;0.50;0.50;;;;;;;1.42;100.00;102773.81;5013783;28;20036;-77
2023/02/09 08:09:01;;;;;;;0.50;0.50;;;;;;;1.39;100.00;102763.34;5014833;28;20488;-76
2023/02/09 08:11:38;;;;;;;0.50;0.50;;;;;;;1.39;100.00;102772.16;4998161;28;20064;-76
2023/02/09 08:14:10;;;;;;;7.82;1.77;;;;;;;1.35;100.00;102772.34;5014967;28;20033;-76
2023/02/09 08:16:38;;;;;;;0.50;0.50;;;;;;;1.39;100.00;102773.94;5013626;28;20123;-76
2023/02/09 08:19:22;;;;;;;0.50;0.50;;;;;;;1.35;100.00;102772.34;4997826;28;20030;-76
2023/02/09 08:21:50;;;;;;;0.40;0.40;;;;;;;1.31;100.00;102776.91;4997023;28;20042;-77
2023/02/09 08:24:17;;;;;;;0.57;0.57;;;;;;;1.24;100.00;102778.97;5013917;28;20495;-76
2023/02/09 08:26:49;;;;;;;1.67;1.67;;;;;;;1.00;100.00;102753.50;5013371;28;20029;-76
2023/02/09 08:29:17;;;;;;;0.40;0.40;;;;;;;0.92;100.00;102768.88;4981533;28;20476;-76
2023/02/09 08:31:47;;;;;;;0.50;0.50;;;;;;;0.85;100.00;102771.78;5013090;28;20030;-76
2023/02/09 08:34:18;;;;;;;0.50;0.50;;;;;;;0.74;100.00;102775.78;5012706;28;20026;-77
2023/02/09 08:36:43;;;;;;;0.50;0.50;;;;;;;0.66;100.00;102778.75;5014421;28;20033;-77
2023/02/09 08:39:09;;;;;;;0.52;0.52;;;;;;;0.64;100.00;102781.47;5013085;28;20131;-77
2023/02/09 08:41:35;;;;;;;0.50;0.50;;;;;;;0.50;100.00;102769.69;4996422;28;20482;-76
2023/02/09 08:44:01;;;;;;;0.50;0.50;;;;;;;0.56;100.00;102788.00;5013310;28;20212;-77
2023/02/09 08:46:33;;;;;;;0.50;0.50;;;;;;;0.57;100.00;102789.72;5012806;28;20029;-78
2023/02/09 08:48:59;;;;;;;0.50;0.50;;;;;;;0.55;100.00;102787.13;5013251;28;20038;-77
2023/02/09 08:51:25;;;;;;;0.50;0.50;;;;;;;0.67;100.00;102783.13;5012911;28;20048;-77
2023/02/09 08:53:51;;;;;;;0.55;0.55;;;;;;;0.71;100.00;102797.09;5013294;28;20029;-77
2023/02/09 08:56:21;;;;;;;0.60;0.60;;;;;;;0.78;100.00;102802.09;5029453;28;20054;-77
2023/02/09 08:58:47;;;;;;;0.60;0.60;;;;;;;0.83;100.00;102807.19;5013197;28;20421;-78
2023/02/09 09:01:13;;;;;;;0.50;0.50;;;;;;;0.90;100.00;102807.78;4980021;28;20038;-78
2023/02/09 09:03:41;;;;;;;0.60;0.60;;;;;;;1.09;100.00;102820.22;5012640;28;20075;-77
2023/02/09 09:06:10;;;;;;;0.52;0.52;;;;;;;1.39;100.00;102803.09;5012540;28;20030;-77
2023/02/09 09:08:37;;;;;;;0.60;0.60;;;;;;;2.40;100.00;102817.09;4996946;28;20038;-76
2023/02/09 09:11:11;;;;;;;0.60;0.60;;;;;;;3.17;100.00;102813.38;5012673;28;20041;-76
2023/02/09 09:13:41;;;;;;;0.60;0.60;;;;;;;3.38;100.00;102812.28;5012699;28;20034;-76
2023/02/09 09:16:22;;;;;;;0.60;0.60;;;;;;;3.68;100.00;102814.31;5012702;28;20091;-76
2023/02/09 09:18:48;;;;;;;0.60;0.60;;;;;;;4.01;100.00;102816.09;5012561;28;20041;-77
2023/02/09 09:21:15;;;;;;;0.60;0.60;;;;;;;4.54;100.00;102825.59;5013532;28;20457;-77
2023/02/09 09:23:42;;;;;;;0.60;0.60;;;;;;;4.66;100.00;102835.59;4996218;28;20022;-77
2023/02/09 09:26:08;;;;;;;0.50;0.50;;;;;;;4.64;100.00;102826.81;5012193;28;20033;-77
2023/02/09 09:28:34;;;;;;;0.63;0.63;;;;;;;5.01;100.00;102838.06;5012518;28;20034;-77
2023/02/09 09:31:06;;;;;;;0.60;0.60;;;;;;;5.91;100.00;102843.31;5013446;28;20034;-76
2023/02/09 09:33:35;;;;;;;0.60;0.60;;;;;;;6.41;100.00;102834.97;4996090;28;20387;-75
2023/02/09 09:36:03;;;;;;;0.60;0.60;;;;;;;6.73;100.00;102838.22;5012585;28;20124;-76
2023/02/09 09:38:36;;;;;;;0.60;0.60;;;;;;;7.18;100.00;102841.50;4996311;28;20423;-76
2023/02/09 09:41:17;;;;;;;0.63;0.63;;;;;;;8.09;100.00;102838.81;4995961;28;20110;-75
2023/02/09 09:43:44;;;;;;;0.60;0.60;;;;;;;9.05;98.87;102841.69;4981963;28;20387;-76
2023/02/09 09:46:15;;;;;;;0.70;0.70;;;;;;;9.64;94.41;102843.47;5000379;28;20044;-76
2023/02/09 09:48:52;;;;;;;0.70;0.70;;;;;;;9.97;92.54;102848.03;5000317;28;20078;-76
2023/02/09 09:51:27;;;;;;;0.60;0.60;;;;;;;10.35;93.15;102830.72;4984135;28;20045;-76
2023/02/09 09:53:54;;;;;;;0.70;0.70;;;;;;;11.10;93.20;102840.69;5017775;28;20116;-76
2023/02/09 09:56:20;;;;;;;0.60;0.60;;;;;;;11.59;91.27;102832.97;4983744;28;20037;-76
2023/02/09 09:58:47;;;;;;;3.45;1.98;;;;;;;11.86;91.70;102849.50;5016519;28;20480;-77
2023/02/09 10:01:17;;;;;;;0.70;0.70;;;;;;;11.91;90.44;102848.25;5016393;28;20045;-77
2023/02/09 10:03:43;;;;;;;0.68;0.68;;;;;;;12.08;89.05;102861.97;4999970;28;20037;-77
2023/02/09 10:06:15;;;;;;;0.80;0.80;;;;;;;12.41;87.90;102864.50;5017073;28;20030;-78
2023/02/09 10:09:02;;;;;;;0.70;0.70;;;;;;;12.54;87.44;102870.53;5016288;28;20507;-77
2023/02/09 10:11:34;;;;;;;3.95;3.58;;;;;;;13.04;90.10;102865.09;5016123;28;20040;-76
2023/02/09 10:14:00;;;;;;;2.83;2.47;;;;;;;12.17;90.78;102864.84;5016146;28;20525;-78
2023/02/09 10:16:29;;;;;;;1.10;1.10;;;;;;;9.59;96.01;102854.56;5015736;28;20112;-78
2023/02/09 10:19:03;;;;;;;2.13;0.98;;;;;;;8.18;100.00;102862.28;4999754;28;20045;-78
2023/02/09 10:21:31;;;;;;;9.60;2.40;;;;;;;7.25;100.00;102861.50;5016314;28;20456;-77
2023/02/09 10:24:03;;;;;;;2.10;1.67;;;;;;;6.77;100.00;102867.34;4983236;28;20032;-76
2023/02/09 10:26:33;;;;;;;2.38;2.15;;;;;;;6.63;100.00;102872.72;5015265;28;20227;-79
2023/02/09 10:29:17;;;;;;;1.15;1.13;;;;;;;7.61;100.00;102866.22;5015507;28;20065;-78
2023/02/09 10:31:54;;;;;;;1.95;1.70;;;;;;;7.46;100.00;102870.81;4985031;28;20477;-78
2023/02/09 10:34:24;;;;;;;7.25;2.78;;;;;;;7.49;100.00;102861.72;5015853;28;20491;-76
2023/02/09 10:36:52;;;;;;;4.78;1.52;;;;;;;7.96;100.00;102878.13;5014923;28;20033;-78
2023/02/09 10:39:21;;;;;;;2.67;2.35;;;;;;;8.22;100.00;102877.16;4999571;28;20120;-77
2023/02/09 10:41:51;;;;;;;7.05;2.42;;;;;;;8.20;100.00;102867.50;5016602;28;20034;-78
2023/02/09 10:44:25;;;;;;;1.50;1.15;;;;;;;8.11;100.00;102852.94;5015034;28;20037;-77
2023/02/09 10:47:09;;;;;;;;;;;;;;;7.88;100.00;102862.59;4999854;28;20121;-74
2023/02/09 10:49:38;;;;;;;3.63;1.50;;;;;;;7.60;100.00;102869.00;5015166;28;19976;-79
2023/02/09 10:52:19;;;;;;;6.00;1.33;;;;;;;7.47;100.00;102880.53;4983701;28;20072;-78
2023/02/09 10:54:58;;;;;;;6.25;2.40;;;;;;;7.36;100.00;102877.75;5014527;28;20495;-77
2023/02/09 10:57:35;;;;;;;2.20;1.00;;;;;;;7.50;100.00;102890.19;5014983;28;20058;-77
2023/02/09 11:00:28;;;;;;;4.30;1.42;;;;;;;7.43;100.00;102894.22;5015100;28;20025;-77
2023/02/09 11:03:00;;;;;;;5.85;1.77;;;;;;;7.35;100.00;102897.41;4998807;28;20068;-77
2023/02/09 11:05:32;;;;;;;7.88;2.25;;;;;;;7.20;100.00;102893.09;4999153;28;20029;-77
2023/02/09 11:08:18;;;;;;;13.75;1.55;;;;;;;7.13;100.00;102899.81;4998984;28;20030;-77
2023/02/09 11:11:27;;;;;;;13.98;3.40;;;;;;;8.10;100.00;102908.38;4998751;28;20180;-79
2023/02/09 11:13:57;;;;;;;9.75;3.53;;;;;;;8.93;100.00;102901.63;5012758;28;20468;-77
2023/02/09 11:17:03;;;;;;;4.97;2.13;;;;;;;10.06;100.00;102906.44;5014756;28;20030;-77
2023/02/09 11:19:47;;;;;;;4.90;2.13;;;;;;;10.96;100.00;102911.00;5015738;28;20029;-78
2023/02/09 11:22:20;;;;;;;6.95;2.03;;;;;;;10.59;100.00;102903.22;5016169;28;20034;-77
2023/02/09 11:24:59;;;;;;;10.63;3.23;;;;;;;9.68;100.00;102906.72;4998694;28;20029;-78
2023/02/09 11:27:40;;;;;;;7.55;3.22;;;;;;;10.91;100.00;102891.66;5014434;28;20334;-78
2023/02/09 11:30:25;;;;;;;3.42;1.35;;;;;;;11.93;97.47;102892.09;5014955;28;20029;-78
2023/02/09 11:32:54;;;;;;;7.53;2.40;;;;;;;12.47;97.84;102890.97;5014176;28;20037;-77
2023/02/09 11:35:25;;;;;;;8.88;2.22;;;;;;;13.59;92.90;102881.63;5014857;28;20060;-77
2023/02/09 11:38:01;;;;;;;2.05;1.20;;;;;;;14.22;85.82;102891.88;5014710;28;20034;-78
2023/02/09 11:40:41;;;;;;;10.73;3.03;;;;;;;13.69;91.82;102888.88;4998310;28;20092;-77
2023/02/09 11:43:09;;;;;;;9.32;2.65;;;;;;;14.46;88.85;102869.69;4998359;28;20049;-77
2023/02/09 11:45:44;;;;;;;10.48;3.60;;;;;;;14.92;89.06;102894.13;5030074;28;20472;-77